Aérodrome :
LOGIN :

S'inscrire | Disclaimer

   EN    FR    IT 

 










Légende :    VFR   VFR Marginal   IFR   IFR Intensif   IFR Très Intensif
Visi : 
Plafond : 
>= 8 km
>= 3000ft
5 à 8 km
1000 à 3000 ft
1500m à 5 km
500 à 1000 ft
800 à 1500m
200 à 500 ft
< 800m
< 200 ft
Symboles :   Orages  Brouillard  Fortes neiges  Fortes précipitations  Vent > 20 kt
SIGMETs :   Divers  Orages  Givrage  Turbulence  Onde Orograph.  Cendres Volcan.







- Altitude de l'aérodrome : 370 ft


EBBE - Beauvechain AB

DERNIER METAR :
  • 231155Z 09009KT 9999 FEW250 11/05 Q1014 BLU BLU

METARs EXPIRÉS :
  • 231125Z 07010KT 9999 FEW250 11/05 Q1014 BLU BLU
  • 231055Z 07009KT 9999 FEW250 11/05 Q1014 BLU BLU
  • 231025Z 05010KT 9999 FEW250 10/05 Q1014 BLU BLU
  • 230955Z 07009KT 9999 FEW250 09/05 Q1014 BLU BLU
  • 230925Z 08008KT 9999 FEW250 08/04 Q1014 BLU BLU
  • 230855Z 08008KT 8000 FEW250 07/04 Q1014 BLU BLU

TAF TAF EBBE
Valide du 23 à 10h jusqu'au 23 à 19h UTC


230841Z 2310/2319 08010KT 9999 SCT230
Pas de NOTAMs connus pour ce terrain.



MET'MAP, la Météo Aéronautique d'un coup d'oeil ! - Copyright ORBIFLY Décembre 2007 - Disclaimer

ORBIFLY MET'MAP TEAM :

Programmation & Développement : Alexandra Zaïnal
Conception & Développement : Baudouin d'Aumeries
Co-Programmation & Développement : Marc-Olivier Méhu
Soutien technique & logistique : Manuel Goepfert

Contact : metmap@orbifly.com




SOURCES & CREDITS :

   NOAA